sensor_id;sensor_type;location;lat;lon;timestamp;temperature;humidity
4209;DHT22;36320;48.860;2.380;2023-05-16T05:46:02;14.30;67.40
4209;DHT22;36320;48.860;2.380;2023-05-16T05:48:29;14.30;68.00
4209;DHT22;36320;48.860;2.380;2023-05-16T05:50:56;14.00;68.40
4209;DHT22;36320;48.860;2.380;2023-05-16T05:53:22;13.60;68.80
4209;DHT22;36320;48.860;2.380;2023-05-16T05:55:48;13.50;69.30
4209;DHT22;36320;48.860;2.380;2023-05-16T05:58:13;13.30;69.40
4209;DHT22;36320;48.860;2.380;2023-05-16T06:00:40;13.40;69.70
4209;DHT22;36320;48.860;2.380;2023-05-16T06:03:06;13.70;69.90
4209;DHT22;36320;48.860;2.380;2023-05-16T06:05:31;13.60;69.30
4209;DHT22;36320;48.860;2.380;2023-05-16T06:07:57;13.50;69.50
4209;DHT22;36320;48.860;2.380;2023-05-16T06:10:23;13.70;69.60
4209;DHT22;36320;48.860;2.380;2023-05-16T06:12:48;13.50;68.90
4209;DHT22;36320;48.860;2.380;2023-05-16T06:15:14;13.50;69.30
4209;DHT22;36320;48.860;2.380;2023-05-16T06:17:40;13.60;69.20
4209;DHT22;36320;48.860;2.380;2023-05-16T06:20:07;13.80;68.80
4209;DHT22;36320;48.860;2.380;2023-05-16T06:22:32;13.70;68.70
4209;DHT22;36320;48.860;2.380;2023-05-16T06:24:59;13.60;68.40
4209;DHT22;36320;48.860;2.380;2023-05-16T06:27:25;13.50;68.20
4209;DHT22;36320;48.860;2.380;2023-05-16T06:29:51;13.40;68.00
4209;DHT22;36320;48.860;2.380;2023-05-16T06:32:17;13.50;68.10
4209;DHT22;36320;48.860;2.380;2023-05-16T06:34:43;13.50;68.10
4209;DHT22;36320;48.860;2.380;2023-05-16T06:37:09;13.70;68.10
4209;DHT22;36320;48.860;2.380;2023-05-16T06:39:35;14.00;68.00
4209;DHT22;36320;48.860;2.380;2023-05-16T06:42:01;14.00;67.50
4209;DHT22;36320;48.860;2.380;2023-05-16T06:44:28;13.90;67.20
4209;DHT22;36320;48.860;2.380;2023-05-16T06:46:54;13.90;67.30
4209;DHT22;36320;48.860;2.380;2023-05-16T06:49:20;14.00;67.40
4209;DHT22;36320;48.860;2.380;2023-05-16T06:51:47;13.90;67.10
4209;DHT22;36320;48.860;2.380;2023-05-16T06:54:12;14.00;67.30
4209;DHT22;36320;48.860;2.380;2023-05-16T06:56:39;14.30;67.30
4209;DHT22;36320;48.860;2.380;2023-05-16T07:01:40;14.00;66.80
4209;DHT22;36320;48.860;2.380;2023-05-16T07:04:06;14.00;66.70
4209;DHT22;36320;48.860;2.380;2023-05-16T07:06:35;15.00;67.50
4209;DHT22;36320;48.860;2.380;2023-05-16T07:14:12;14.40;66.70
4209;DHT22;36320;48.860;2.380;2023-05-16T07:16:39;14.60;66.30
4209;DHT22;36320;48.860;2.380;2023-05-16T07:19:05;14.60;66.10
4209;DHT22;36320;48.860;2.380;2023-05-16T07:21:31;14.60;66.70
4209;DHT22;36320;48.860;2.380;2023-05-16T07:23:57;14.60;66.20
4209;DHT22;36320;48.860;2.380;2023-05-16T07:26:22;14.80;65.90
4209;DHT22;36320;48.860;2.380;2023-05-16T07:28:51;14.30;65.00
4209;DHT22;36320;48.860;2.380;2023-05-16T07:31:17;14.60;65.50
4209;DHT22;36320;48.860;2.380;2023-05-16T07:33:43;14.70;65.40
4209;DHT22;36320;48.860;2.380;2023-05-16T07:36:12;14.70;65.40
4209;DHT22;36320;48.860;2.380;2023-05-16T07:38:38;14.80;65.30
4209;DHT22;36320;48.860;2.380;2023-05-16T07:41:04;14.90;65.30
4209;DHT22;36320;48.860;2.380;2023-05-16T07:43:30;14.90;65.00
4209;DHT22;36320;48.860;2.380;2023-05-16T07:46:00;15.00;65.80
4209;DHT22;36320;48.860;2.380;2023-05-16T07:48:25;14.80;65.10
4209;DHT22;36320;48.860;2.380;2023-05-16T07:50:51;15.10;65.10
4209;DHT22;36320;48.860;2.380;2023-05-16T07:53:19;15.30;64.60
4209;DHT22;36320;48.860;2.380;2023-05-16T07:55:48;15.50;64.20
4209;DHT22;36320;48.860;2.380;2023-05-16T07:58:14;15.30;63.70
4209;DHT22;36320;48.860;2.380;2023-05-16T08:00:40;15.20;63.90
4209;DHT22;36320;48.860;2.380;2023-05-16T08:03:05;15.40;64.00
4209;DHT22;36320;48.860;2.380;2023-05-16T08:05:31;15.40;63.10
4209;DHT22;36320;48.860;2.380;2023-05-16T08:07:57;15.50;63.00
4209;DHT22;36320;48.860;2.380;2023-05-16T08:10:25;15.50;62.80
4209;DHT22;36320;48.860;2.380;2023-05-16T08:12:51;15.60;62.70
4209;DHT22;36320;48.860;2.380;2023-05-16T08:15:18;15.80;62.80
4209;DHT22;36320;48.860;2.380;2023-05-16T08:17:43;15.70;61.80
4209;DHT22;36320;48.860;2.380;2023-05-16T08:20:10;15.80;61.80
4209;DHT22;36320;48.860;2.380;2023-05-16T08:22:36;15.70;60.30
4209;DHT22;36320;48.860;2.380;2023-05-16T08:25:05;15.70;60.80
4209;DHT22;36320;48.860;2.380;2023-05-16T08:27:31;15.70;61.60
4209;DHT22;36320;48.860;2.380;2023-05-16T08:30:00;15.60;60.90
4209;DHT22;36320;48.860;2.380;2023-05-16T08:32:25;15.80;60.60
4209;DHT22;36320;48.860;2.380;2023-05-16T08:34:51;16.10;60.80
4209;DHT22;36320;48.860;2.380;2023-05-16T08:37:17;16.10;60.00
4209;DHT22;36320;48.860;2.380;2023-05-16T08:39:43;16.20;60.00
4209;DHT22;36320;48.860;2.380;2023-05-16T08:42:08;15.60;59.20
4209;DHT22;36320;48.860;2.380;2023-05-16T08:44:35;16.00;59.50
4209;DHT22;36320;48.860;2.380;2023-05-16T08:47:10;16.40;59.30
4209;DHT22;36320;48.860;2.380;2023-05-16T08:49:39;16.70;58.80
4209;DHT22;36320;48.860;2.380;2023-05-16T08:52:07;17.00;58.20
4209;DHT22;36320;48.860;2.380;2023-05-16T08:54:34;18.00;58.30
4209;DHT22;36320;48.860;2.380;2023-05-16T08:57:01;17.00;57.00
4209;DHT22;36320;48.860;2.380;2023-05-16T08:59:29;16.90;57.00
4209;DHT22;36320;48.860;2.380;2023-05-16T09:01:56;16.90;56.60
4209;DHT22;36320;48.860;2.380;2023-05-16T09:04:24;17.00;56.40
4209;DHT22;36320;48.860;2.380;2023-05-16T09:06:51;17.10;56.30
4209;DHT22;36320;48.860;2.380;2023-05-16T09:09:19;17.40;56.10
4209;DHT22;36320;48.860;2.380;2023-05-16T09:11:46;17.60;55.80
4209;DHT22;36320;48.860;2.380;2023-05-16T09:14:12;17.60;55.70
4209;DHT22;36320;48.860;2.380;2023-05-16T09:16:39;17.80;55.60
4209;DHT22;36320;48.860;2.380;2023-05-16T09:19:05;17.90;55.30
4209;DHT22;36320;48.860;2.380;2023-05-16T09:21:32;17.80;54.90
4209;DHT22;36320;48.860;2.380;2023-05-16T09:24:08;17.70;54.90
4209;DHT22;36320;48.860;2.380;2023-05-16T09:26:37;17.60;54.80
4209;DHT22;36320;48.860;2.380;2023-05-16T09:29:16;17.50;54.40
4209;DHT22;36320;48.860;2.380;2023-05-16T09:31:45;17.30;54.20
4209;DHT22;36320;48.860;2.380;2023-05-16T09:34:10;17.20;54.00
4209;DHT22;36320;48.860;2.380;2023-05-16T09:36:37;17.40;53.80
4209;DHT22;36320;48.860;2.380;2023-05-16T09:39:07;17.10;53.70
4209;DHT22;36320;48.860;2.380;2023-05-16T09:41:33;16.80;53.20
4209;DHT22;36320;48.860;2.380;2023-05-16T09:44:03;16.60;53.20
4209;DHT22;36320;48.860;2.380;2023-05-16T09:46:31;16.80;53.80
4209;DHT22;36320;48.860;2.380;2023-05-16T09:49:00;17.00;53.20
4209;DHT22;36320;48.860;2.380;2023-05-16T09:51:26;16.90;52.80
4209;DHT22;36320;48.860;2.380;2023-05-16T09:53:53;17.20;52.80
4209;DHT22;36320;48.860;2.380;2023-05-16T09:56:19;17.70;52.20
4209;DHT22;36320;48.860;2.380;2023-05-16T09:58:45;18.00;51.50
4209;DHT22;36320;48.860;2.380;2023-05-16T10:01:12;18.40;51.30
4209;DHT22;36320;48.860;2.380;2023-05-16T10:03:39;18.30;50.30
4209;DHT22;36320;48.860;2.380;2023-05-16T10:06:06;18.10;50.50
4209;DHT22;36320;48.860;2.380;2023-05-16T10:08:34;18.10;50.60
4209;DHT22;36320;48.860;2.380;2023-05-16T10:11:04;18.30;50.70
4209;DHT22;36320;48.860;2.380;2023-05-16T10:13:33;18.00;50.70
4209;DHT22;36320;48.860;2.380;2023-05-16T10:16:05;17.90;51.20
4209;DHT22;36320;48.860;2.380;2023-05-16T10:18:31;18.00;51.30
4209;DHT22;36320;48.860;2.380;2023-05-16T10:21:05;18.00;51.00
4209;DHT22;36320;48.860;2.380;2023-05-16T10:23:33;17.70;50.90
4209;DHT22;36320;48.860;2.380;2023-05-16T10:26:02;17.60;51.10
4209;DHT22;36320;48.860;2.380;2023-05-16T10:28:31;17.90;51.20
4209;DHT22;36320;48.860;2.380;2023-05-16T10:30:58;18.00;50.80
4209;DHT22;36320;48.860;2.380;2023-05-16T10:33:25;17.80;50.50
4209;DHT22;36320;48.860;2.380;2023-05-16T10:35:52;17.40;50.50
4209;DHT22;36320;48.860;2.380;2023-05-16T10:38:18;18.20;50.70
4209;DHT22;36320;48.860;2.380;2023-05-16T10:40:46;18.30;50.50
4209;DHT22;36320;48.860;2.380;2023-05-16T10:43:23;18.30;50.60
4209;DHT22;36320;48.860;2.380;2023-05-16T10:46:04;18.00;50.30
4209;DHT22;36320;48.860;2.380;2023-05-16T10:48:52;18.00;50.90
4209;DHT22;36320;48.860;2.380;2023-05-16T10:53:54;18.30;50.80
4209;DHT22;36320;48.860;2.380;2023-05-16T10:56:25;17.80;50.60
4209;DHT22;36320;48.860;2.380;2023-05-16T10:58:53;17.80;51.40
4209;DHT22;36320;48.860;2.380;2023-05-16T11:01:27;18.00;51.60
4209;DHT22;36320;48.860;2.380;2023-05-16T11:11:38;18.90;50.40
4209;DHT22;36320;48.860;2.380;2023-05-16T11:14:04;19.00;49.70
4209;DHT22;36320;48.860;2.380;2023-05-16T11:16:30;19.50;49.30
4209;DHT22;36320;48.860;2.380;2023-05-16T11:19:07;19.30;48.80
4209;DHT22;36320;48.860;2.380;2023-05-16T11:24:35;18.80;49.20
4209;DHT22;36320;48.860;2.380;2023-05-16T11:27:02;18.70;48.90
4209;DHT22;36320;48.860;2.380;2023-05-16T11:29:34;18.80;49.30
4209;DHT22;36320;48.860;2.380;2023-05-16T11:32:01;19.40;49.00
4209;DHT22;36320;48.860;2.380;2023-05-16T11:34:29;19.90;48.40
4209;DHT22;36320;48.860;2.380;2023-05-16T11:36:56;20.00;47.70
4209;DHT22;36320;48.860;2.380;2023-05-16T11:39:22;20.20;47.30
4209;DHT22;36320;48.860;2.380;2023-05-16T11:41:52;19.70;46.30
4209;DHT22;36320;48.860;2.380;2023-05-16T11:44:18;19.70;47.10
4209;DHT22;36320;48.860;2.380;2023-05-16T11:46:44;19.80;46.60
4209;DHT22;36320;48.860;2.380;2023-05-16T11:49:11;19.70;46.40
4209;DHT22;36320;48.860;2.380;2023-05-16T11:51:41;19.80;46.80
4209;DHT22;36320;48.860;2.380;2023-05-16T11:54:11;19.70;46.80
4209;DHT22;36320;48.860;2.380;2023-05-16T11:56:39;19.50;46.70
4209;DHT22;36320;48.860;2.380;2023-05-16T11:59:07;19.30;46.90
4209;DHT22;36320;48.860;2.380;2023-05-16T12:01:36;18.70;46.70
4209;DHT22;36320;48.860;2.380;2023-05-16T12:04:09;18.90;46.70
4209;DHT22;36320;48.860;2.380;2023-05-16T12:06:36;18.90;47.30
4209;DHT22;36320;48.860;2.380;2023-05-16T12:09:04;18.90;47.30
4209;DHT22;36320;48.860;2.380;2023-05-16T12:11:38;18.90;47.20
4209;DHT22;36320;48.860;2.380;2023-05-16T12:14:05;18.90;47.00
4209;DHT22;36320;48.860;2.380;2023-05-16T12:16:32;19.10;47.20
4209;DHT22;36320;48.860;2.380;2023-05-16T12:18:59;19.50;47.00
4209;DHT22;36320;48.860;2.380;2023-05-16T12:21:26;19.60;46.30
4209;DHT22;36320;48.860;2.380;2023-05-16T12:23:55;20.00;46.10
4209;DHT22;36320;48.860;2.380;2023-05-16T12:26:26;20.20;45.20
4209;DHT22;36320;48.860;2.380;2023-05-16T12:29:04;20.10;45.20
4209;DHT22;36320;48.860;2.380;2023-05-16T12:31:34;19.90;45.30
4209;DHT22;36320;48.860;2.380;2023-05-16T12:34:00;19.50;45.00
4209;DHT22;36320;48.860;2.380;2023-05-16T12:36:30;19.60;45.10
4209;DHT22;36320;48.860;2.380;2023-05-16T12:39:00;20.00;44.90
4209;DHT22;36320;48.860;2.380;2023-05-16T12:41:30;20.10;45.00
4209;DHT22;36320;48.860;2.380;2023-05-16T12:46:52;19.60;45.30
4209;DHT22;36320;48.860;2.380;2023-05-16T12:49:21;19.80;45.20
4209;DHT22;36320;48.860;2.380;2023-05-16T12:51:51;19.90;44.50
4209;DHT22;36320;48.860;2.380;2023-05-16T12:54:17;20.00;44.20
4209;DHT22;36320;48.860;2.380;2023-05-16T12:56:43;20.20;44.50
4209;DHT22;36320;48.860;2.380;2023-05-16T12:59:09;20.10;44.50
4209;DHT22;36320;48.860;2.380;2023-05-16T13:01:37;20.20;44.30
4209;DHT22;36320;48.860;2.380;2023-05-16T13:04:03;20.40;43.50
4209;DHT22;36320;48.860;2.380;2023-05-16T13:06:29;20.60;43.20
4209;DHT22;36320;48.860;2.380;2023-05-16T13:08:56;20.30;43.10
4209;DHT22;36320;48.860;2.380;2023-05-16T13:11:25;20.20;43.50
4209;DHT22;36320;48.860;2.380;2023-05-16T13:13:51;20.20;43.50
4209;DHT22;36320;48.860;2.380;2023-05-16T13:16:17;20.50;43.50
4209;DHT22;36320;48.860;2.380;2023-05-16T13:18:43;20.60;43.30
4209;DHT22;36320;48.860;2.380;2023-05-16T13:21:09;20.20;43.20
4209;DHT22;36320;48.860;2.380;2023-05-16T13:23:34;20.50;44.20
4209;DHT22;36320;48.860;2.380;2023-05-16T13:26:00;20.30;43.60
4209;DHT22;36320;48.860;2.380;2023-05-16T13:28:26;20.50;43.20
4209;DHT22;36320;48.860;2.380;2023-05-16T13:30:52;20.40;43.00
4209;DHT22;36320;48.860;2.380;2023-05-16T13:33:18;20.40;43.20
4209;DHT22;36320;48.860;2.380;2023-05-16T13:35:43;20.60;43.30
4209;DHT22;36320;48.860;2.380;2023-05-16T13:38:09;20.60;43.40
4209;DHT22;36320;48.860;2.380;2023-05-16T13:40:35;20.70;43.20
4209;DHT22;36320;48.860;2.380;2023-05-16T13:43:02;20.90;43.40
4209;DHT22;36320;48.860;2.380;2023-05-16T13:45:28;20.80;42.70
4209;DHT22;36320;48.860;2.380;2023-05-16T13:47:53;20.60;42.40
4209;DHT22;36320;48.860;2.380;2023-05-16T13:50:19;20.70;42.50
4209;DHT22;36320;48.860;2.380;2023-05-16T13:52:46;20.70;42.10
4209;DHT22;36320;48.860;2.380;2023-05-16T13:55:13;20.60;42.10
4209;DHT22;36320;48.860;2.380;2023-05-16T13:57:39;21.00;42.20
4209;DHT22;36320;48.860;2.380;2023-05-16T14:00:06;21.10;41.50
4209;DHT22;36320;48.860;2.380;2023-05-16T14:02:39;20.90;41.10
4209;DHT22;36320;48.860;2.380;2023-05-16T14:05:06;20.40;41.40
4209;DHT22;36320;48.860;2.380;2023-05-16T14:07:32;20.60;41.90
4209;DHT22;36320;48.860;2.380;2023-05-16T14:09:58;20.80;41.70
4209;DHT22;36320;48.860;2.380;2023-05-16T14:12:25;20.80;41.70
4209;DHT22;36320;48.860;2.380;2023-05-16T14:14:51;20.70;41.60
4209;DHT22;36320;48.860;2.380;2023-05-16T14:17:16;20.80;41.90
4209;DHT22;36320;48.860;2.380;2023-05-16T14:19:42;20.70;42.10
4209;DHT22;36320;48.860;2.380;2023-05-16T14:22:08;20.60;42.20
4209;DHT22;36320;48.860;2.380;2023-05-16T14:24:34;20.20;42.30
4209;DHT22;36320;48.860;2.380;2023-05-16T14:26:59;20.40;42.60
4209;DHT22;36320;48.860;2.380;2023-05-16T14:29:26;20.40;42.20
4209;DHT22;36320;48.860;2.380;2023-05-16T14:31:52;21.00;42.10
4209;DHT22;36320;48.860;2.380;2023-05-16T14:34:18;20.90;41.50
4209;DHT22;36320;48.860;2.380;2023-05-16T14:36:45;20.70;41.80
4209;DHT22;36320;48.860;2.380;2023-05-16T14:39:11;21.00;42.10
4209;DHT22;36320;48.860;2.380;2023-05-16T14:41:37;21.00;41.80
4209;DHT22;36320;48.860;2.380;2023-05-16T14:44:02;21.00;41.70
4209;DHT22;36320;48.860;2.380;2023-05-16T14:46:28;20.70;41.60
4209;DHT22;36320;48.860;2.380;2023-05-16T14:48:54;20.90;42.10
4209;DHT22;36320;48.860;2.380;2023-05-16T14:51:21;21.80;41.90
4209;DHT22;36320;48.860;2.380;2023-05-16T14:53:47;22.10;41.00
4209;DHT22;36320;48.860;2.380;2023-05-16T14:56:14;21.40;40.50
4209;DHT22;36320;48.860;2.380;2023-05-16T14:58:40;21.30;41.10
4209;DHT22;36320;48.860;2.380;2023-05-16T15:01:05;20.80;41.30
4209;DHT22;36320;48.860;2.380;2023-05-16T15:03:31;20.70;41.70
4209;DHT22;36320;48.860;2.380;2023-05-16T15:06:00;20.70;42.50
4209;DHT22;36320;48.860;2.380;2023-05-16T15:08:29;20.90;41.70
4209;DHT22;36320;48.860;2.380;2023-05-16T15:10:56;21.70;41.70
4209;DHT22;36320;48.860;2.380;2023-05-16T15:13:22;22.80;41.40
4209;DHT22;36320;48.860;2.380;2023-05-16T15:15:48;23.80;40.20
4209;DHT22;36320;48.860;2.380;2023-05-16T15:18:13;23.30;38.60
4209;DHT22;36320;48.860;2.380;2023-05-16T15:20:39;22.60;38.90
4209;DHT22;36320;48.860;2.380;2023-05-16T15:23:05;22.90;39.40
4209;DHT22;36320;48.860;2.380;2023-05-16T15:25:31;28.10;37.20
4209;DHT22;36320;48.860;2.380;2023-05-16T15:28:00;26.60;34.60
4209;DHT22;36320;48.860;2.380;2023-05-16T15:30:26;26.60;36.90
4209;DHT22;36320;48.860;2.380;2023-05-16T15:32:53;31.10;32.30
4209;DHT22;36320;48.860;2.380;2023-05-16T15:35:18;27.60;31.60
4209;DHT22;36320;48.860;2.380;2023-05-16T15:37:44;26.00;33.70
4209;DHT22;36320;48.860;2.380;2023-05-16T15:40:10;31.50;31.70
4209;DHT22;36320;48.860;2.380;2023-05-16T15:42:36;37.50;28.00
4209;DHT22;36320;48.860;2.380;2023-05-16T15:45:11;37.90;25.00
4209;DHT22;36320;48.860;2.380;2023-05-16T15:47:37;38.40;25.10
4209;DHT22;36320;48.860;2.380;2023-05-16T15:50:03;39.70;23.60
4209;DHT22;36320;48.860;2.380;2023-05-16T15:52:38;41.10;22.00
4209;DHT22;36320;48.860;2.380;2023-05-16T15:55:08;35.70;22.60
4209;DHT22;36320;48.860;2.380;2023-05-16T15:57:37;31.60;24.70
4209;DHT22;36320;48.860;2.380;2023-05-16T16:00:05;29.30;26.40
4209;DHT22;36320;48.860;2.380;2023-05-16T16:02:31;28.50;27.30
4209;DHT22;36320;48.860;2.380;2023-05-16T16:04:57;26.40;27.90
4209;DHT22;36320;48.860;2.380;2023-05-16T16:07:24;24.70;29.90
4209;DHT22;36320;48.860;2.380;2023-05-16T16:09:53;29.00;28.70
4209;DHT22;36320;48.860;2.380;2023-05-16T16:12:19;32.50;26.40
4209;DHT22;36320;48.860;2.380;2023-05-16T16:14:46;29.00;26.30
4209;DHT22;36320;48.860;2.380;2023-05-16T16:17:13;26.40;28.40
4209;DHT22;36320;48.860;2.380;2023-05-16T16:19:40;25.30;29.60
4209;DHT22;36320;48.860;2.380;2023-05-16T16:22:07;24.90;30.20
4209;DHT22;36320;48.860;2.380;2023-05-16T16:24:33;24.60;30.20
4209;DHT22;36320;48.860;2.380;2023-05-16T16:26:59;24.00;30.40
4209;DHT22;36320;48.860;2.380;2023-05-16T16:29:24;23.10;31.60
4209;DHT22;36320;48.860;2.380;2023-05-16T16:31:50;24.70;33.30
4209;DHT22;36320;48.860;2.380;2023-05-16T16:34:17;29.40;29.00
4209;DHT22;36320;48.860;2.380;2023-05-16T16:36:46;32.30;28.00
4209;DHT22;36320;48.860;2.380;2023-05-16T16:39:12;36.70;24.90
4209;DHT22;36320;48.860;2.380;2023-05-16T16:41:37;38.70;23.40
4209;DHT22;36320;48.860;2.380;2023-05-16T16:44:03;39.40;22.30
4209;DHT22;36320;48.860;2.380;2023-05-16T16:46:29;36.50;22.80
4209;DHT22;36320;48.860;2.380;2023-05-16T16:48:55;38.50;22.70
4209;DHT22;36320;48.860;2.380;2023-05-16T16:51:20;37.20;22.50
4209;DHT22;36320;48.860;2.380;2023-05-16T16:53:46;39.30;21.70
4209;DHT22;36320;48.860;2.380;2023-05-16T16:56:12;38.50;21.40
4209;DHT22;36320;48.860;2.380;2023-05-16T16:58:38;36.00;21.60
4209;DHT22;36320;48.860;2.380;2023-05-16T17:01:06;31.70;23.30
4209;DHT22;36320;48.860;2.380;2023-05-16T17:03:33;28.90;25.50
4209;DHT22;36320;48.860;2.380;2023-05-16T17:06:01;26.90;26.80
4209;DHT22;36320;48.860;2.380;2023-05-16T17:08:27;25.20;28.10
4209;DHT22;36320;48.860;2.380;2023-05-16T17:10:53;24.20;29.20
4209;DHT22;36320;48.860;2.380;2023-05-16T17:13:18;23.10;29.30
4209;DHT22;36320;48.860;2.380;2023-05-16T17:15:44;23.50;30.20
4209;DHT22;36320;48.860;2.380;2023-05-16T17:18:12;23.10;30.60
4209;DHT22;36320;48.860;2.380;2023-05-16T17:20:38;22.50;31.50
4209;DHT22;36320;48.860;2.380;2023-05-16T17:23:04;22.40;32.10
4209;DHT22;36320;48.860;2.380;2023-05-16T17:25:30;22.20;32.40
4209;DHT22;36320;48.860;2.380;2023-05-16T17:27:56;22.10;32.70
4209;DHT22;36320;48.860;2.380;2023-05-16T17:30:24;21.80;33.10
4209;DHT22;36320;48.860;2.380;2023-05-16T17:32:50;21.80;33.40
4209;DHT22;36320;48.860;2.380;2023-05-16T17:35:17;21.50;33.80
4209;DHT22;36320;48.860;2.380;2023-05-16T17:37:44;21.40;34.30
4209;DHT22;36320;48.860;2.380;2023-05-16T17:40:12;21.30;34.40
4209;DHT22;36320;48.860;2.380;2023-05-16T17:42:41;21.50;34.70
4209;DHT22;36320;48.860;2.380;2023-05-16T17:45:07;21.30;34.80
4209;DHT22;36320;48.860;2.380;2023-05-16T17:47:33;21.10;35.00
4209;DHT22;36320;48.860;2.380;2023-05-16T17:49:58;20.90;35.50
4209;DHT22;36320;48.860;2.380;2023-05-16T17:52:24;20.80;35.70
4209;DHT22;36320;48.860;2.380;2023-05-16T17:54:50;20.60;35.90
4209;DHT22;36320;48.860;2.380;2023-05-16T17:57:16;20.60;36.40
4209;DHT22;36320;48.860;2.380;2023-05-16T17:59:41;20.50;36.60
4209;DHT22;36320;48.860;2.380;2023-05-16T18:02:07;20.40;36.60
4209;DHT22;36320;48.860;2.380;2023-05-16T18:04:34;20.40;36.70
4209;DHT22;36320;48.860;2.380;2023-05-16T18:07:01;20.20;36.80
4209;DHT22;36320;48.860;2.380;2023-05-16T18:09:27;19.80;37.00
4209;DHT22;36320;48.860;2.380;2023-05-16T18:11:53;19.60;37.40
4209;DHT22;36320;48.860;2.380;2023-05-16T18:14:19;19.50;37.60
4209;DHT22;36320;48.860;2.380;2023-05-16T18:16:44;19.40;37.90
4209;DHT22;36320;48.860;2.380;2023-05-16T18:19:10;19.30;38.10
4209;DHT22;36320;48.860;2.380;2023-05-16T18:21:38;19.30;38.40
4209;DHT22;36320;48.860;2.380;2023-05-16T18:24:05;19.40;38.60
4209;DHT22;36320;48.860;2.380;2023-05-16T18:26:35;19.30;38.60
4209;DHT22;36320;48.860;2.380;2023-05-16T18:29:01;19.10;38.90
4209;DHT22;36320;48.860;2.380;2023-05-16T18:31:28;19.10;39.10
4209;DHT22;36320;48.860;2.380;2023-05-16T18:33:55;19.00;39.40
4209;DHT22;36320;48.860;2.380;2023-05-16T18:36:23;18.80;39.50
4209;DHT22;36320;48.860;2.380;2023-05-16T18:38:48;18.80;39.80
4209;DHT22;36320;48.860;2.380;2023-05-16T18:41:14;18.70;39.80
4209;DHT22;36320;48.860;2.380;2023-05-16T18:43:53;18.60;39.90
4209;DHT22;36320;48.860;2.380;2023-05-16T18:46:22;18.50;40.10
4209;DHT22;36320;48.860;2.380;2023-05-16T18:48:50;18.50;40.30
4209;DHT22;36320;48.860;2.380;2023-05-16T18:51:17;18.50;40.50
4209;DHT22;36320;48.860;2.380;2023-05-16T18:56:18;18.40;41.00
4209;DHT22;36320;48.860;2.380;2023-05-16T18:58:44;18.20;41.30
4209;DHT22;36320;48.860;2.380;2023-05-16T19:01:10;18.10;41.60
4209;DHT22;36320;48.860;2.380;2023-05-16T19:03:36;18.10;41.80
4209;DHT22;36320;48.860;2.380;2023-05-16T19:06:01;18.10;41.90
4209;DHT22;36320;48.860;2.380;2023-05-16T19:08:28;18.10;41.90
4209;DHT22;36320;48.860;2.380;2023-05-16T19:10:59;17.90;41.90
4209;DHT22;36320;48.860;2.380;2023-05-16T19:13:24;18.00;42.20
4209;DHT22;36320;48.860;2.380;2023-05-16T19:15:50;17.80;42.20
4209;DHT22;36320;48.860;2.380;2023-05-16T19:18:17;17.80;42.50
4209;DHT22;36320;48.860;2.380;2023-05-16T19:20:43;17.80;42.70
4209;DHT22;36320;48.860;2.380;2023-05-16T19:23:09;17.70;42.80
4209;DHT22;36320;48.860;2.380;2023-05-16T19:25:35;17.70;43.00
4209;DHT22;36320;48.860;2.380;2023-05-16T19:28:01;17.60;43.30
4209;DHT22;36320;48.860;2.380;2023-05-16T19:30:28;17.60;43.40
4209;DHT22;36320;48.860;2.380;2023-05-16T19:32:55;17.60;43.50
4209;DHT22;36320;48.860;2.380;2023-05-16T19:35:20;17.50;43.60
4209;DHT22;36320;48.860;2.380;2023-05-16T19:37:50;17.40;43.80
4209;DHT22;36320;48.860;2.380;2023-05-16T19:40:16;17.50;44.00
4209;DHT22;36320;48.860;2.380;2023-05-16T19:42:42;17.40;44.20
4209;DHT22;36320;48.860;2.380;2023-05-16T19:45:09;17.40;44.30
4209;DHT22;36320;48.860;2.380;2023-05-16T19:47:36;17.20;44.20
4209;DHT22;36320;48.860;2.380;2023-05-16T19:50:02;17.10;44.30
4209;DHT22;36320;48.860;2.380;2023-05-16T19:52:27;17.40;44.70
4209;DHT22;36320;48.860;2.380;2023-05-16T19:54:54;17.40;44.70
4209;DHT22;36320;48.860;2.380;2023-05-16T19:57:20;17.40;44.70
4209;DHT22;36320;48.860;2.380;2023-05-16T19:59:45;17.60;44.80
4209;DHT22;36320;48.860;2.380;2023-05-16T20:02:11;17.60;45.30
4209;DHT22;36320;48.860;2.380;2023-05-16T20:04:37;17.40;45.00
4209;DHT22;36320;48.860;2.380;2023-05-16T20:07:02;17.30;45.30
4209;DHT22;36320;48.860;2.380;2023-05-16T20:09:29;17.30;45.50
4209;DHT22;36320;48.860;2.380;2023-05-16T20:11:57;17.30;45.80
4209;DHT22;36320;48.860;2.380;2023-05-16T20:14:23;17.30;45.90
4209;DHT22;36320;48.860;2.380;2023-05-16T20:16:49;17.20;46.00
4209;DHT22;36320;48.860;2.380;2023-05-16T20:19:16;17.20;46.40
4209;DHT22;36320;48.860;2.380;2023-05-16T20:21:45;17.30;46.50
4209;DHT22;36320;48.860;2.380;2023-05-16T20:24:11;17.20;46.60
4209;DHT22;36320;48.860;2.380;2023-05-16T20:26:36;17.30;46.70
4209;DHT22;36320;48.860;2.380;2023-05-16T20:29:02;17.20;46.80
4209;DHT22;36320;48.860;2.380;2023-05-16T20:31:28;17.10;47.00
4209;DHT22;36320;48.860;2.380;2023-05-16T20:33:54;17.10;47.30
4209;DHT22;36320;48.860;2.380;2023-05-16T20:36:20;17.00;47.40
4209;DHT22;36320;48.860;2.380;2023-05-16T20:38:47;16.90;47.60
4209;DHT22;36320;48.860;2.380;2023-05-16T20:41:14;16.90;48.00
4209;DHT22;36320;48.860;2.380;2023-05-16T20:43:41;17.00;48.10
4209;DHT22;36320;48.860;2.380;2023-05-16T20:46:07;16.90;48.40
4209;DHT22;36320;48.860;2.380;2023-05-16T20:48:33;16.90;48.50
4209;DHT22;36320;48.860;2.380;2023-05-16T20:50:59;16.80;49.00
4209;DHT22;36320;48.860;2.380;2023-05-16T20:53:27;16.70;49.80
4209;DHT22;36320;48.860;2.380;2023-05-16T20:55:54;16.60;50.40
4209;DHT22;36320;48.860;2.380;2023-05-16T20:58:20;16.60;51.10
4209;DHT22;36320;48.860;2.380;2023-05-16T21:00:45;16.70;51.20
4209;DHT22;36320;48.860;2.380;2023-05-16T21:03:11;16.70;51.30
4209;DHT22;36320;48.860;2.380;2023-05-16T21:05:37;16.70;51.60
4209;DHT22;36320;48.860;2.380;2023-05-16T21:08:03;16.60;52.00
4209;DHT22;36320;48.860;2.380;2023-05-16T21:10:29;16.50;52.60
4209;DHT22;36320;48.860;2.380;2023-05-16T21:12:54;16.60;52.80
4209;DHT22;36320;48.860;2.380;2023-05-16T21:15:20;16.50;53.00
4209;DHT22;36320;48.860;2.380;2023-05-16T21:17:47;16.60;53.30
4209;DHT22;36320;48.860;2.380;2023-05-16T21:20:13;16.60;53.40
4209;DHT22;36320;48.860;2.380;2023-05-16T21:22:39;16.50;53.50
4209;DHT22;36320;48.860;2.380;2023-05-16T21:25:05;16.50;53.90
4209;DHT22;36320;48.860;2.380;2023-05-16T21:27:31;16.40;54.20
4209;DHT22;36320;48.860;2.380;2023-05-16T21:29:57;16.60;54.60
4209;DHT22;36320;48.860;2.380;2023-05-16T21:32:24;16.30;54.70
4209;DHT22;36320;48.860;2.380;2023-05-16T21:34:52;16.20;55.00
4209;DHT22;36320;48.860;2.380;2023-05-16T21:37:18;16.30;55.20
4209;DHT22;36320;48.860;2.380;2023-05-16T21:39:43;16.40;55.30
4209;DHT22;36320;48.860;2.380;2023-05-16T21:42:09;16.30;55.40
4209;DHT22;36320;48.860;2.380;2023-05-16T21:44:35;16.20;55.50
4209;DHT22;36320;48.860;2.380;2023-05-16T21:47:00;16.20;55.70
4209;DHT22;36320;48.860;2.380;2023-05-16T21:49:26;16.20;55.70
4209;DHT22;36320;48.860;2.380;2023-05-16T21:51:52;16.30;56.00
4209;DHT22;36320;48.860;2.380;2023-05-16T21:54:18;16.40;55.80